Oak Lake, Canada
Current Conditions -  °F | °C
As of 11:00 PM on Thursday 27 Nov 2014 (Local Time) from CYBR Reporting Station
Light Snow Light Snow  
Wind Chill: -5°   Ceiling: 2800
Heat Index:   Visibility: 15mi
Dew Point:   Wind: 7mph
Humidity: 85%   Direction: 100°E
Pressure: 30.04"   Gusts: NA
Location:  49.77°N, 100.63°W
Report Text: CYBR 280500Z 10006KT 15SM -SN OVC028 M14/M16 A3004 RMK SC8 SLP213
Loading
Personal Weather Stations






























Interactive Weather Map New forecast layout! Learn more

10-Day Weather Forecast

Advertisements
Track Severe Weather on mobile